sensor_id;sensor_type;location;lat;lon;timestamp;temperature;humidity
8565;DHT22;4320;51.498;6.556;2023-07-16T00:02:03;20.10;99.90
8565;DHT22;4320;51.498;6.556;2023-07-16T00:04:32;20.10;99.90
8565;DHT22;4320;51.498;6.556;2023-07-16T00:07:01;20.10;99.90
8565;DHT22;4320;51.498;6.556;2023-07-16T00:09:28;20.20;99.90
8565;DHT22;4320;51.498;6.556;2023-07-16T00:11:54;20.20;99.90
8565;DHT22;4320;51.498;6.556;2023-07-16T00:14:19;20.30;99.90
8565;DHT22;4320;51.498;6.556;2023-07-16T00:16:45;20.30;99.90
8565;DHT22;4320;51.498;6.556;2023-07-16T00:19:11;20.30;99.90
8565;DHT22;4320;51.498;6.556;2023-07-16T00:21:38;20.20;99.90
8565;DHT22;4320;51.498;6.556;2023-07-16T00:24:04;20.30;99.90
8565;DHT22;4320;51.498;6.556;2023-07-16T00:26:30;20.30;99.90
8565;DHT22;4320;51.498;6.556;2023-07-16T00:28:56;20.30;99.90
8565;DHT22;4320;51.498;6.556;2023-07-16T00:31:21;20.20;99.90
8565;DHT22;4320;51.498;6.556;2023-07-16T00:33:47;20.00;99.90
8565;DHT22;4320;51.498;6.556;2023-07-16T00:36:12;20.10;99.90
8565;DHT22;4320;51.498;6.556;2023-07-16T00:38:38;20.10;99.90
8565;DHT22;4320;51.498;6.556;2023-07-16T00:41:05;20.10;99.90
8565;DHT22;4320;51.498;6.556;2023-07-16T00:43:31;20.10;99.90
8565;DHT22;4320;51.498;6.556;2023-07-16T00:45:57;20.20;99.90
8565;DHT22;4320;51.498;6.556;2023-07-16T00:48:23;20.30;99.90
8565;DHT22;4320;51.498;6.556;2023-07-16T00:50:50;20.30;99.90
8565;DHT22;4320;51.498;6.556;2023-07-16T00:53:17;20.30;99.90
8565;DHT22;4320;51.498;6.556;2023-07-16T00:55:43;19.90;99.90
8565;DHT22;4320;51.498;6.556;2023-07-16T00:58:09;20.00;99.90
8565;DHT22;4320;51.498;6.556;2023-07-16T01:00:36;20.20;99.90
8565;DHT22;4320;51.498;6.556;2023-07-16T01:03:06;20.30;99.90
8565;DHT22;4320;51.498;6.556;2023-07-16T01:05:59;20.30;99.90
8565;DHT22;4320;51.498;6.556;2023-07-16T01:08:41;20.40;99.90
8565;DHT22;4320;51.498;6.556;2023-07-16T01:11:07;20.30;99.90
8565;DHT22;4320;51.498;6.556;2023-07-16T01:13:34;20.20;99.90
8565;DHT22;4320;51.498;6.556;2023-07-16T01:16:00;20.10;99.90
8565;DHT22;4320;51.498;6.556;2023-07-16T01:18:25;20.10;99.90
8565;DHT22;4320;51.498;6.556;2023-07-16T01:20:51;20.10;99.90
8565;DHT22;4320;51.498;6.556;2023-07-16T01:23:27;20.10;99.90
8565;DHT22;4320;51.498;6.556;2023-07-16T01:31:37;20.10;99.90
8565;DHT22;4320;51.498;6.556;2023-07-16T01:34:05;20.00;99.90
8565;DHT22;4320;51.498;6.556;2023-07-16T01:36:31;19.90;99.90
8565;DHT22;4320;51.498;6.556;2023-07-16T01:38:58;19.90;99.90
8565;DHT22;4320;51.498;6.556;2023-07-16T01:41:24;19.90;99.90
8565;DHT22;4320;51.498;6.556;2023-07-16T01:43:50;19.80;99.90
8565;DHT22;4320;51.498;6.556;2023-07-16T01:46:16;19.80;99.90
8565;DHT22;4320;51.498;6.556;2023-07-16T01:48:42;19.80;99.90
8565;DHT22;4320;51.498;6.556;2023-07-16T01:51:08;19.80;99.90
8565;DHT22;4320;51.498;6.556;2023-07-16T01:53:33;19.80;99.90
8565;DHT22;4320;51.498;6.556;2023-07-16T01:56:01;19.80;99.90
8565;DHT22;4320;51.498;6.556;2023-07-16T01:58:27;19.80;99.90
8565;DHT22;4320;51.498;6.556;2023-07-16T02:00:53;19.70;99.90
8565;DHT22;4320;51.498;6.556;2023-07-16T02:03:18;19.60;99.90
8565;DHT22;4320;51.498;6.556;2023-07-16T02:05:44;19.60;99.90
8565;DHT22;4320;51.498;6.556;2023-07-16T02:08:10;19.70;99.90
8565;DHT22;4320;51.498;6.556;2023-07-16T02:10:35;19.70;99.90
8565;DHT22;4320;51.498;6.556;2023-07-16T02:13:01;19.70;99.90
8565;DHT22;4320;51.498;6.556;2023-07-16T02:15:26;19.60;99.90
8565;DHT22;4320;51.498;6.556;2023-07-16T02:17:52;19.60;99.90
8565;DHT22;4320;51.498;6.556;2023-07-16T02:20:18;19.60;99.90
8565;DHT22;4320;51.498;6.556;2023-07-16T02:22:43;19.60;99.90
8565;DHT22;4320;51.498;6.556;2023-07-16T02:25:09;19.70;99.90
8565;DHT22;4320;51.498;6.556;2023-07-16T02:27:34;19.60;99.90
8565;DHT22;4320;51.498;6.556;2023-07-16T02:30:00;19.60;99.90
8565;DHT22;4320;51.498;6.556;2023-07-16T02:32:26;19.50;99.90
8565;DHT22;4320;51.498;6.556;2023-07-16T02:34:51;19.50;99.90
8565;DHT22;4320;51.498;6.556;2023-07-16T02:37:17;19.40;99.90
8565;DHT22;4320;51.498;6.556;2023-07-16T02:39:44;19.40;99.90
8565;DHT22;4320;51.498;6.556;2023-07-16T02:42:10;19.50;99.90
8565;DHT22;4320;51.498;6.556;2023-07-16T02:44:36;19.40;99.90
8565;DHT22;4320;51.498;6.556;2023-07-16T02:47:10;19.40;99.90
8565;DHT22;4320;51.498;6.556;2023-07-16T02:49:36;19.40;99.90
8565;DHT22;4320;51.498;6.556;2023-07-16T02:52:01;19.40;99.90
8565;DHT22;4320;51.498;6.556;2023-07-16T02:54:27;19.40;99.90
8565;DHT22;4320;51.498;6.556;2023-07-16T02:56:53;19.20;99.90
8565;DHT22;4320;51.498;6.556;2023-07-16T02:59:18;19.20;99.90
8565;DHT22;4320;51.498;6.556;2023-07-16T03:01:44;19.20;99.90
8565;DHT22;4320;51.498;6.556;2023-07-16T03:04:09;19.30;99.90
8565;DHT22;4320;51.498;6.556;2023-07-16T03:06:35;19.20;99.90
8565;DHT22;4320;51.498;6.556;2023-07-16T03:09:01;19.20;99.90
8565;DHT22;4320;51.498;6.556;2023-07-16T03:11:26;19.10;99.90
8565;DHT22;4320;51.498;6.556;2023-07-16T03:13:52;19.00;99.90
8565;DHT22;4320;51.498;6.556;2023-07-16T03:16:18;19.10;99.90
8565;DHT22;4320;51.498;6.556;2023-07-16T03:18:44;19.10;99.90
8565;DHT22;4320;51.498;6.556;2023-07-16T03:21:11;19.00;99.90
8565;DHT22;4320;51.498;6.556;2023-07-16T03:23:37;19.00;99.90
8565;DHT22;4320;51.498;6.556;2023-07-16T03:26:02;19.00;99.90
8565;DHT22;4320;51.498;6.556;2023-07-16T03:28:28;19.00;99.90
8565;DHT22;4320;51.498;6.556;2023-07-16T03:30:54;19.00;99.90
8565;DHT22;4320;51.498;6.556;2023-07-16T03:33:20;19.00;99.90
8565;DHT22;4320;51.498;6.556;2023-07-16T03:35:46;19.00;99.90
8565;DHT22;4320;51.498;6.556;2023-07-16T03:38:13;18.90;99.90
8565;DHT22;4320;51.498;6.556;2023-07-16T03:40:39;18.80;99.90
8565;DHT22;4320;51.498;6.556;2023-07-16T03:43:05;18.80;99.90
8565;DHT22;4320;51.498;6.556;2023-07-16T03:45:31;18.70;99.90
8565;DHT22;4320;51.498;6.556;2023-07-16T03:47:56;18.70;99.90
8565;DHT22;4320;51.498;6.556;2023-07-16T03:50:22;18.70;99.90
8565;DHT22;4320;51.498;6.556;2023-07-16T03:52:48;18.70;99.90
8565;DHT22;4320;51.498;6.556;2023-07-16T03:55:13;18.80;99.90
8565;DHT22;4320;51.498;6.556;2023-07-16T03:57:39;18.70;99.90
8565;DHT22;4320;51.498;6.556;2023-07-16T04:00:05;18.60;99.90
8565;DHT22;4320;51.498;6.556;2023-07-16T04:02:33;18.60;99.90
8565;DHT22;4320;51.498;6.556;2023-07-16T04:04:58;18.50;99.90
8565;DHT22;4320;51.498;6.556;2023-07-16T04:07:24;18.50;99.90
8565;DHT22;4320;51.498;6.556;2023-07-16T04:09:51;18.60;99.90
8565;DHT22;4320;51.498;6.556;2023-07-16T04:12:16;18.60;99.90
8565;DHT22;4320;51.498;6.556;2023-07-16T04:14:42;18.60;99.90
8565;DHT22;4320;51.498;6.556;2023-07-16T04:17:07;18.60;99.90
8565;DHT22;4320;51.498;6.556;2023-07-16T04:19:33;18.60;99.90
8565;DHT22;4320;51.498;6.556;2023-07-16T04:21:59;18.60;99.90
8565;DHT22;4320;51.498;6.556;2023-07-16T04:24:25;18.50;99.90
8565;DHT22;4320;51.498;6.556;2023-07-16T04:26:52;18.30;99.90
8565;DHT22;4320;51.498;6.556;2023-07-16T04:29:18;18.20;99.90
8565;DHT22;4320;51.498;6.556;2023-07-16T04:31:44;18.30;99.90
8565;DHT22;4320;51.498;6.556;2023-07-16T04:34:09;18.40;99.90
8565;DHT22;4320;51.498;6.556;2023-07-16T04:36:35;18.50;99.90
8565;DHT22;4320;51.498;6.556;2023-07-16T04:39:01;18.60;99.90
8565;DHT22;4320;51.498;6.556;2023-07-16T04:41:27;18.80;99.90
8565;DHT22;4320;51.498;6.556;2023-07-16T04:43:52;19.00;99.90
8565;DHT22;4320;51.498;6.556;2023-07-16T04:46:18;19.00;99.90
8565;DHT22;4320;51.498;6.556;2023-07-16T04:48:43;19.10;99.90
8565;DHT22;4320;51.498;6.556;2023-07-16T04:51:09;19.10;99.90
8565;DHT22;4320;51.498;6.556;2023-07-16T04:53:35;19.10;99.90
8565;DHT22;4320;51.498;6.556;2023-07-16T04:56:00;19.10;99.90
8565;DHT22;4320;51.498;6.556;2023-07-16T04:58:26;19.00;99.90
8565;DHT22;4320;51.498;6.556;2023-07-16T05:00:52;19.00;99.90
8565;DHT22;4320;51.498;6.556;2023-07-16T05:03:17;19.00;99.90
8565;DHT22;4320;51.498;6.556;2023-07-16T05:05:43;19.00;99.90
8565;DHT22;4320;51.498;6.556;2023-07-16T05:08:08;19.10;99.90
8565;DHT22;4320;51.498;6.556;2023-07-16T05:10:34;19.00;99.90
8565;DHT22;4320;51.498;6.556;2023-07-16T05:13:00;19.10;99.90
8565;DHT22;4320;51.498;6.556;2023-07-16T05:15:26;19.10;99.90
8565;DHT22;4320;51.498;6.556;2023-07-16T05:17:51;19.10;99.90
8565;DHT22;4320;51.498;6.556;2023-07-16T05:20:17;19.10;99.90
8565;DHT22;4320;51.498;6.556;2023-07-16T05:22:42;19.20;99.90
8565;DHT22;4320;51.498;6.556;2023-07-16T05:25:08;19.20;99.90
8565;DHT22;4320;51.498;6.556;2023-07-16T05:27:34;19.20;99.90
8565;DHT22;4320;51.498;6.556;2023-07-16T05:30:01;19.20;99.90
8565;DHT22;4320;51.498;6.556;2023-07-16T05:32:26;19.20;99.90
8565;DHT22;4320;51.498;6.556;2023-07-16T05:34:52;19.10;99.90
8565;DHT22;4320;51.498;6.556;2023-07-16T05:37:17;19.10;99.90
8565;DHT22;4320;51.498;6.556;2023-07-16T05:39:43;19.10;99.90
8565;DHT22;4320;51.498;6.556;2023-07-16T05:42:09;19.10;99.90
8565;DHT22;4320;51.498;6.556;2023-07-16T05:44:35;19.10;99.90
8565;DHT22;4320;51.498;6.556;2023-07-16T05:47:01;19.20;99.90
8565;DHT22;4320;51.498;6.556;2023-07-16T05:49:27;19.20;99.90
8565;DHT22;4320;51.498;6.556;2023-07-16T05:51:52;19.30;97.70
8565;DHT22;4320;51.498;6.556;2023-07-16T05:54:19;19.40;92.30
8565;DHT22;4320;51.498;6.556;2023-07-16T05:56:45;19.40;93.90
8565;DHT22;4320;51.498;6.556;2023-07-16T05:59:11;19.40;90.20
8565;DHT22;4320;51.498;6.556;2023-07-16T06:01:36;19.30;92.30
8565;DHT22;4320;51.498;6.556;2023-07-16T06:04:02;19.30;75.90
8565;DHT22;4320;51.498;6.556;2023-07-16T06:06:28;19.30;68.20
8565;DHT22;4320;51.498;6.556;2023-07-16T06:08:54;19.20;54.90
8565;DHT22;4320;51.498;6.556;2023-07-16T06:11:19;19.30;54.10
8565;DHT22;4320;51.498;6.556;2023-07-16T06:13:46;19.30;49.60
8565;DHT22;4320;51.498;6.556;2023-07-16T06:16:11;19.30;57.20
8565;DHT22;4320;51.498;6.556;2023-07-16T06:18:37;19.40;49.20
8565;DHT22;4320;51.498;6.556;2023-07-16T06:21:02;19.40;44.80
8565;DHT22;4320;51.498;6.556;2023-07-16T06:23:28;19.40;42.20
8565;DHT22;4320;51.498;6.556;2023-07-16T06:25:54;19.50;45.30
8565;DHT22;4320;51.498;6.556;2023-07-16T06:28:20;19.40;34.90
8565;DHT22;4320;51.498;6.556;2023-07-16T06:30:46;19.40;34.90
8565;DHT22;4320;51.498;6.556;2023-07-16T06:33:11;19.40;37.70
8565;DHT22;4320;51.498;6.556;2023-07-16T06:35:37;19.50;32.10
8565;DHT22;4320;51.498;6.556;2023-07-16T06:38:05;19.60;31.40
8565;DHT22;4320;51.498;6.556;2023-07-16T06:40:30;19.80;29.10
8565;DHT22;4320;51.498;6.556;2023-07-16T06:42:56;19.60;23.80
8565;DHT22;4320;51.498;6.556;2023-07-16T06:45:22;19.70;23.10
8565;DHT22;4320;51.498;6.556;2023-07-16T06:47:48;19.90;18.60
8565;DHT22;4320;51.498;6.556;2023-07-16T06:50:14;19.90;14.40
8565;DHT22;4320;51.498;6.556;2023-07-16T06:52:39;19.80;6.70
8565;DHT22;4320;51.498;6.556;2023-07-16T06:55:05;19.80;4.50
8565;DHT22;4320;51.498;6.556;2023-07-16T06:57:31;19.80;4.30
8565;DHT22;4320;51.498;6.556;2023-07-16T06:59:56;20.10;4.50
8565;DHT22;4320;51.498;6.556;2023-07-16T07:02:22;20.50;4.80
8565;DHT22;4320;51.498;6.556;2023-07-16T07:04:51;20.50;1.00
8565;DHT22;4320;51.498;6.556;2023-07-16T07:07:17;20.60;1.00
8565;DHT22;4320;51.498;6.556;2023-07-16T07:09:42;20.60;1.00
8565;DHT22;4320;51.498;6.556;2023-07-16T07:12:08;20.40;1.00
8565;DHT22;4320;51.498;6.556;2023-07-16T07:14:34;20.30;1.00
8565;DHT22;4320;51.498;6.556;2023-07-16T07:16:59;20.20;1.00
8565;DHT22;4320;51.498;6.556;2023-07-16T07:19:25;20.30;1.00
8565;DHT22;4320;51.498;6.556;2023-07-16T07:21:51;20.20;1.00
8565;DHT22;4320;51.498;6.556;2023-07-16T07:24:16;20.10;1.00
8565;DHT22;4320;51.498;6.556;2023-07-16T07:26:42;20.00;1.00
8565;DHT22;4320;51.498;6.556;2023-07-16T07:29:08;20.10;1.00
8565;DHT22;4320;51.498;6.556;2023-07-16T07:31:33;20.30;1.00
8565;DHT22;4320;51.498;6.556;2023-07-16T07:33:59;20.30;1.00
8565;DHT22;4320;51.498;6.556;2023-07-16T07:36:25;20.20;1.00
8565;DHT22;4320;51.498;6.556;2023-07-16T07:38:50;20.30;1.00
8565;DHT22;4320;51.498;6.556;2023-07-16T07:41:16;20.40;1.00
8565;DHT22;4320;51.498;6.556;2023-07-16T07:43:42;20.50;1.00
8565;DHT22;4320;51.498;6.556;2023-07-16T07:46:08;20.40;1.00
8565;DHT22;4320;51.498;6.556;2023-07-16T07:48:33;20.30;1.00
8565;DHT22;4320;51.498;6.556;2023-07-16T07:50:59;20.20;1.00
8565;DHT22;4320;51.498;6.556;2023-07-16T07:53:25;20.30;1.00
8565;DHT22;4320;51.498;6.556;2023-07-16T07:55:50;20.40;1.00
8565;DHT22;4320;51.498;6.556;2023-07-16T07:58:16;20.40;1.00
8565;DHT22;4320;51.498;6.556;2023-07-16T08:00:41;20.50;1.00
8565;DHT22;4320;51.498;6.556;2023-07-16T08:03:07;20.70;1.00
8565;DHT22;4320;51.498;6.556;2023-07-16T08:05:33;20.70;1.00
8565;DHT22;4320;51.498;6.556;2023-07-16T08:07:59;20.60;1.00
8565;DHT22;4320;51.498;6.556;2023-07-16T08:10:25;20.70;1.00
8565;DHT22;4320;51.498;6.556;2023-07-16T08:12:51;20.70;1.00
8565;DHT22;4320;51.498;6.556;2023-07-16T08:15:18;20.80;1.00
8565;DHT22;4320;51.498;6.556;2023-07-16T08:17:45;20.80;1.00
8565;DHT22;4320;51.498;6.556;2023-07-16T08:20:11;20.90;1.00
8565;DHT22;4320;51.498;6.556;2023-07-16T08:22:38;21.00;1.00
8565;DHT22;4320;51.498;6.556;2023-07-16T08:25:05;21.10;1.00
8565;DHT22;4320;51.498;6.556;2023-07-16T08:27:31;21.20;1.00
8565;DHT22;4320;51.498;6.556;2023-07-16T08:29:56;21.60;1.00
8565;DHT22;4320;51.498;6.556;2023-07-16T08:32:23;21.50;1.00
8565;DHT22;4320;51.498;6.556;2023-07-16T08:34:49;21.30;1.00
8565;DHT22;4320;51.498;6.556;2023-07-16T08:37:14;21.50;1.00
8565;DHT22;4320;51.498;6.556;2023-07-16T08:39:40;21.50;1.00
8565;DHT22;4320;51.498;6.556;2023-07-16T08:42:06;21.50;1.00
8565;DHT22;4320;51.498;6.556;2023-07-16T08:44:34;21.30;1.00
8565;DHT22;4320;51.498;6.556;2023-07-16T08:47:00;21.30;1.00
8565;DHT22;4320;51.498;6.556;2023-07-16T08:49:29;21.40;1.00
8565;DHT22;4320;51.498;6.556;2023-07-16T08:51:55;21.50;1.00
8565;DHT22;4320;51.498;6.556;2023-07-16T08:54:22;21.50;1.00
8565;DHT22;4320;51.498;6.556;2023-07-16T08:56:48;21.50;1.00
8565;DHT22;4320;51.498;6.556;2023-07-16T08:59:17;21.50;1.00
8565;DHT22;4320;51.498;6.556;2023-07-16T09:01:43;21.60;1.00
8565;DHT22;4320;51.498;6.556;2023-07-16T09:04:09;21.80;1.00
8565;DHT22;4320;51.498;6.556;2023-07-16T09:06:35;21.90;1.00
8565;DHT22;4320;51.498;6.556;2023-07-16T09:09:01;22.00;1.00
8565;DHT22;4320;51.498;6.556;2023-07-16T09:11:26;22.00;1.00
8565;DHT22;4320;51.498;6.556;2023-07-16T09:13:52;22.00;1.00
8565;DHT22;4320;51.498;6.556;2023-07-16T09:16:18;22.10;1.00
8565;DHT22;4320;51.498;6.556;2023-07-16T09:18:46;22.10;1.00
8565;DHT22;4320;51.498;6.556;2023-07-16T09:21:12;21.90;1.00
8565;DHT22;4320;51.498;6.556;2023-07-16T09:23:37;21.80;1.00
8565;DHT22;4320;51.498;6.556;2023-07-16T09:26:03;21.80;1.00
8565;DHT22;4320;51.498;6.556;2023-07-16T09:28:32;21.80;1.00
8565;DHT22;4320;51.498;6.556;2023-07-16T09:31:04;21.90;1.00
8565;DHT22;4320;51.498;6.556;2023-07-16T09:33:31;22.00;1.00
8565;DHT22;4320;51.498;6.556;2023-07-16T09:35:57;22.20;1.00
8565;DHT22;4320;51.498;6.556;2023-07-16T09:38:23;22.10;1.00
8565;DHT22;4320;51.498;6.556;2023-07-16T09:40:51;22.10;1.00
8565;DHT22;4320;51.498;6.556;2023-07-16T09:43:17;22.30;1.00
8565;DHT22;4320;51.498;6.556;2023-07-16T09:45:43;22.40;1.00
8565;DHT22;4320;51.498;6.556;2023-07-16T09:48:09;22.60;1.00
8565;DHT22;4320;51.498;6.556;2023-07-16T09:50:35;22.60;1.00
8565;DHT22;4320;51.498;6.556;2023-07-16T09:53:03;22.50;1.00
8565;DHT22;4320;51.498;6.556;2023-07-16T09:55:32;22.60;1.00
8565;DHT22;4320;51.498;6.556;2023-07-16T09:58:03;22.70;1.00
8565;DHT22;4320;51.498;6.556;2023-07-16T10:00:32;22.40;1.00
8565;DHT22;4320;51.498;6.556;2023-07-16T10:02:59;22.60;1.00
8565;DHT22;4320;51.498;6.556;2023-07-16T10:05:26;22.60;1.00
8565;DHT22;4320;51.498;6.556;2023-07-16T10:07:55;22.70;1.00
8565;DHT22;4320;51.498;6.556;2023-07-16T10:13:26;22.80;1.00
8565;DHT22;4320;51.498;6.556;2023-07-16T10:15:54;22.70;1.00
8565;DHT22;4320;51.498;6.556;2023-07-16T10:18:27;22.70;1.00
8565;DHT22;4320;51.498;6.556;2023-07-16T10:20:53;22.80;1.00
8565;DHT22;4320;51.498;6.556;2023-07-16T10:23:19;22.90;1.00
8565;DHT22;4320;51.498;6.556;2023-07-16T10:26:01;23.00;1.00
8565;DHT22;4320;51.498;6.556;2023-07-16T10:28:34;22.70;1.00
8565;DHT22;4320;51.498;6.556;2023-07-16T10:30:59;22.90;1.00
8565;DHT22;4320;51.498;6.556;2023-07-16T10:33:25;23.00;1.00
8565;DHT22;4320;51.498;6.556;2023-07-16T10:35:51;23.00;1.00
8565;DHT22;4320;51.498;6.556;2023-07-16T10:38:16;22.70;1.00
8565;DHT22;4320;51.498;6.556;2023-07-16T10:40:45;22.60;1.00
8565;DHT22;4320;51.498;6.556;2023-07-16T10:43:12;22.80;1.00
8565;DHT22;4320;51.498;6.556;2023-07-16T10:45:38;22.80;1.00
8565;DHT22;4320;51.498;6.556;2023-07-16T10:48:05;22.90;1.00
8565;DHT22;4320;51.498;6.556;2023-07-16T10:50:35;23.00;1.00
8565;DHT22;4320;51.498;6.556;2023-07-16T10:53:01;23.00;1.00
8565;DHT22;4320;51.498;6.556;2023-07-16T10:55:28;23.00;1.00
8565;DHT22;4320;51.498;6.556;2023-07-16T10:57:55;23.10;1.00
8565;DHT22;4320;51.498;6.556;2023-07-16T11:00:22;23.20;1.00
8565;DHT22;4320;51.498;6.556;2023-07-16T11:02:50;23.20;1.00
8565;DHT22;4320;51.498;6.556;2023-07-16T11:05:18;23.10;1.00
8565;DHT22;4320;51.498;6.556;2023-07-16T11:07:45;23.10;1.00
8565;DHT22;4320;51.498;6.556;2023-07-16T11:10:11;23.20;1.00
8565;DHT22;4320;51.498;6.556;2023-07-16T11:12:37;23.30;1.00
8565;DHT22;4320;51.498;6.556;2023-07-16T11:15:03;23.50;1.00
8565;DHT22;4320;51.498;6.556;2023-07-16T11:17:29;23.60;1.00
8565;DHT22;4320;51.498;6.556;2023-07-16T11:19:55;23.50;1.00
8565;DHT22;4320;51.498;6.556;2023-07-16T11:22:26;23.60;1.00
8565;DHT22;4320;51.498;6.556;2023-07-16T11:24:55;23.40;1.00
8565;DHT22;4320;51.498;6.556;2023-07-16T11:27:22;23.50;1.00
8565;DHT22;4320;51.498;6.556;2023-07-16T11:29:53;23.50;1.00
8565;DHT22;4320;51.498;6.556;2023-07-16T11:32:46;23.70;1.00
8565;DHT22;4320;51.498;6.556;2023-07-16T11:35:17;23.70;1.00
8565;DHT22;4320;51.498;6.556;2023-07-16T11:37:44;23.90;1.00
8565;DHT22;4320;51.498;6.556;2023-07-16T11:40:10;24.00;1.00
8565;DHT22;4320;51.498;6.556;2023-07-16T11:42:38;24.20;1.00
8565;DHT22;4320;51.498;6.556;2023-07-16T11:45:04;24.20;1.00
8565;DHT22;4320;51.498;6.556;2023-07-16T11:47:31;24.10;1.00
8565;DHT22;4320;51.498;6.556;2023-07-16T11:49:57;24.10;1.00
8565;DHT22;4320;51.498;6.556;2023-07-16T11:52:25;24.10;1.00
8565;DHT22;4320;51.498;6.556;2023-07-16T11:54:58;24.00;1.00
8565;DHT22;4320;51.498;6.556;2023-07-16T11:57:28;24.20;1.00
8565;DHT22;4320;51.498;6.556;2023-07-16T11:59:54;24.00;1.00
8565;DHT22;4320;51.498;6.556;2023-07-16T12:02:20;23.80;1.00
8565;DHT22;4320;51.498;6.556;2023-07-16T12:04:46;23.70;1.00
8565;DHT22;4320;51.498;6.556;2023-07-16T12:07:11;23.90;1.00
8565;DHT22;4320;51.498;6.556;2023-07-16T12:09:37;23.90;1.00
8565;DHT22;4320;51.498;6.556;2023-07-16T12:12:03;23.90;1.00
8565;DHT22;4320;51.498;6.556;2023-07-16T12:14:30;24.00;1.00
8565;DHT22;4320;51.498;6.556;2023-07-16T12:16:56;24.20;1.00
8565;DHT22;4320;51.498;6.556;2023-07-16T12:19:22;24.20;1.00
8565;DHT22;4320;51.498;6.556;2023-07-16T12:21:48;24.00;1.00
8565;DHT22;4320;51.498;6.556;2023-07-16T12:24:13;24.00;1.00
8565;DHT22;4320;51.498;6.556;2023-07-16T12:26:39;24.00;1.00
8565;DHT22;4320;51.498;6.556;2023-07-16T12:29:05;24.10;1.00
8565;DHT22;4320;51.498;6.556;2023-07-16T12:31:33;24.20;1.00
8565;DHT22;4320;51.498;6.556;2023-07-16T12:33:59;24.30;1.00
8565;DHT22;4320;51.498;6.556;2023-07-16T12:36:25;24.20;1.00
8565;DHT22;4320;51.498;6.556;2023-07-16T12:38:51;24.30;1.00
8565;DHT22;4320;51.498;6.556;2023-07-16T12:41:16;24.80;1.00
8565;DHT22;4320;51.498;6.556;2023-07-16T12:43:42;24.50;1.00
8565;DHT22;4320;51.498;6.556;2023-07-16T12:46:08;24.50;1.00
8565;DHT22;4320;51.498;6.556;2023-07-16T12:48:34;24.40;1.00
8565;DHT22;4320;51.498;6.556;2023-07-16T12:51:00;24.50;1.00
8565;DHT22;4320;51.498;6.556;2023-07-16T12:53:26;24.50;1.00
8565;DHT22;4320;51.498;6.556;2023-07-16T12:55:52;24.60;1.00
8565;DHT22;4320;51.498;6.556;2023-07-16T12:58:18;24.50;1.00
8565;DHT22;4320;51.498;6.556;2023-07-16T13:00:44;24.50;1.00
8565;DHT22;4320;51.498;6.556;2023-07-16T13:03:10;24.30;1.00
8565;DHT22;4320;51.498;6.556;2023-07-16T13:05:40;24.20;1.00
8565;DHT22;4320;51.498;6.556;2023-07-16T13:08:06;24.40;1.00
8565;DHT22;4320;51.498;6.556;2023-07-16T13:10:32;24.30;1.00
8565;DHT22;4320;51.498;6.556;2023-07-16T13:12:57;24.40;1.00
8565;DHT22;4320;51.498;6.556;2023-07-16T13:15:23;24.50;1.00
8565;DHT22;4320;51.498;6.556;2023-07-16T13:17:49;24.60;1.00
8565;DHT22;4320;51.498;6.556;2023-07-16T13:20:15;25.10;1.00
8565;DHT22;4320;51.498;6.556;2023-07-16T13:22:41;25.40;1.00
8565;DHT22;4320;51.498;6.556;2023-07-16T13:25:06;25.50;1.00
8565;DHT22;4320;51.498;6.556;2023-07-16T13:27:32;25.20;1.00
8565;DHT22;4320;51.498;6.556;2023-07-16T13:29:57;25.00;1.00
8565;DHT22;4320;51.498;6.556;2023-07-16T13:32:23;25.10;1.00
8565;DHT22;4320;51.498;6.556;2023-07-16T13:34:49;24.80;1.00
8565;DHT22;4320;51.498;6.556;2023-07-16T13:37:15;24.80;1.00
8565;DHT22;4320;51.498;6.556;2023-07-16T13:39:40;25.00;1.00
8565;DHT22;4320;51.498;6.556;2023-07-16T13:42:06;25.40;1.00
8565;DHT22;4320;51.498;6.556;2023-07-16T13:44:35;25.50;1.00
8565;DHT22;4320;51.498;6.556;2023-07-16T13:47:00;25.50;1.00
8565;DHT22;4320;51.498;6.556;2023-07-16T13:49:26;25.60;1.00
8565;DHT22;4320;51.498;6.556;2023-07-16T13:51:51;25.80;1.00
8565;DHT22;4320;51.498;6.556;2023-07-16T13:54:17;25.70;1.00
8565;DHT22;4320;51.498;6.556;2023-07-16T13:56:43;25.50;1.00
8565;DHT22;4320;51.498;6.556;2023-07-16T13:59:08;25.50;1.00
8565;DHT22;4320;51.498;6.556;2023-07-16T14:01:38;25.40;1.00
8565;DHT22;4320;51.498;6.556;2023-07-16T14:04:04;25.40;1.00
8565;DHT22;4320;51.498;6.556;2023-07-16T14:06:30;25.60;1.00
8565;DHT22;4320;51.498;6.556;2023-07-16T14:08:55;25.60;1.00
8565;DHT22;4320;51.498;6.556;2023-07-16T14:11:22;25.50;1.00
8565;DHT22;4320;51.498;6.556;2023-07-16T14:13:48;25.50;1.00
8565;DHT22;4320;51.498;6.556;2023-07-16T14:16:22;25.30;1.00
8565;DHT22;4320;51.498;6.556;2023-07-16T14:18:52;25.20;1.00
8565;DHT22;4320;51.498;6.556;2023-07-16T14:21:19;24.90;1.00
8565;DHT22;4320;51.498;6.556;2023-07-16T14:23:45;25.00;1.00
8565;DHT22;4320;51.498;6.556;2023-07-16T14:26:11;25.10;1.00
8565;DHT22;4320;51.498;6.556;2023-07-16T14:28:37;25.30;1.00
8565;DHT22;4320;51.498;6.556;2023-07-16T14:31:03;25.40;1.00
8565;DHT22;4320;51.498;6.556;2023-07-16T14:33:28;25.10;1.00
8565;DHT22;4320;51.498;6.556;2023-07-16T14:35:54;25.10;1.00
8565;DHT22;4320;51.498;6.556;2023-07-16T14:38:19;25.20;1.00
8565;DHT22;4320;51.498;6.556;2023-07-16T14:40:45;25.30;1.00
8565;DHT22;4320;51.498;6.556;2023-07-16T14:43:12;25.30;1.00
8565;DHT22;4320;51.498;6.556;2023-07-16T14:45:37;25.40;1.00
8565;DHT22;4320;51.498;6.556;2023-07-16T14:48:04;25.30;1.00
8565;DHT22;4320;51.498;6.556;2023-07-16T14:50:30;25.50;1.00
8565;DHT22;4320;51.498;6.556;2023-07-16T14:52:55;25.50;1.00
8565;DHT22;4320;51.498;6.556;2023-07-16T14:55:21;25.40;1.00
8565;DHT22;4320;51.498;6.556;2023-07-16T14:57:48;25.30;1.00
8565;DHT22;4320;51.498;6.556;2023-07-16T15:00:14;25.40;1.00
8565;DHT22;4320;51.498;6.556;2023-07-16T15:02:40;25.50;1.00
8565;DHT22;4320;51.498;6.556;2023-07-16T15:05:07;25.50;1.00
8565;DHT22;4320;51.498;6.556;2023-07-16T15:07:33;25.60;1.00
8565;DHT22;4320;51.498;6.556;2023-07-16T15:10:00;25.80;1.00
8565;DHT22;4320;51.498;6.556;2023-07-16T15:12:25;25.70;1.00
8565;DHT22;4320;51.498;6.556;2023-07-16T15:14:51;25.40;1.00
8565;DHT22;4320;51.498;6.556;2023-07-16T15:17:17;25.20;1.00
8565;DHT22;4320;51.498;6.556;2023-07-16T15:19:43;25.10;1.00
8565;DHT22;4320;51.498;6.556;2023-07-16T15:22:09;25.00;1.00
8565;DHT22;4320;51.498;6.556;2023-07-16T15:24:35;25.00;1.00
8565;DHT22;4320;51.498;6.556;2023-07-16T15:27:01;25.10;1.00
8565;DHT22;4320;51.498;6.556;2023-07-16T15:29:26;25.00;1.00
8565;DHT22;4320;51.498;6.556;2023-07-16T15:31:52;25.20;1.00
8565;DHT22;4320;51.498;6.556;2023-07-16T15:34:17;25.30;1.00
8565;DHT22;4320;51.498;6.556;2023-07-16T15:36:43;25.30;1.00
8565;DHT22;4320;51.498;6.556;2023-07-16T15:39:09;25.10;1.00
8565;DHT22;4320;51.498;6.556;2023-07-16T15:41:35;25.10;1.00
8565;DHT22;4320;51.498;6.556;2023-07-16T15:44:01;25.10;1.00
8565;DHT22;4320;51.498;6.556;2023-07-16T15:46:29;25.10;1.00
8565;DHT22;4320;51.498;6.556;2023-07-16T15:48:55;24.80;1.00
8565;DHT22;4320;51.498;6.556;2023-07-16T15:51:20;24.90;1.00
8565;DHT22;4320;51.498;6.556;2023-07-16T15:53:46;25.00;1.00
8565;DHT22;4320;51.498;6.556;2023-07-16T15:56:15;24.80;1.00
8565;DHT22;4320;51.498;6.556;2023-07-16T15:58:40;24.80;1.00
8565;DHT22;4320;51.498;6.556;2023-07-16T16:01:06;24.90;1.00
8565;DHT22;4320;51.498;6.556;2023-07-16T16:03:32;24.90;1.00
8565;DHT22;4320;51.498;6.556;2023-07-16T16:05:57;24.90;1.00
8565;DHT22;4320;51.498;6.556;2023-07-16T16:08:26;24.90;1.00
8565;DHT22;4320;51.498;6.556;2023-07-16T16:10:52;24.90;1.00
8565;DHT22;4320;51.498;6.556;2023-07-16T16:13:22;25.00;1.00
8565;DHT22;4320;51.498;6.556;2023-07-16T16:15:48;25.10;1.00